Terminal Aerodrome Forecast
Issued by NWS Wichita, KS

Current Version | Previous Version | Text Only | Print | Product List | Glossary On
Versions: 1 2 3 4 5 6 7 8 9 10 11 12 13 14 15 16 17 18 19 20 21 22 23 24 25 26 27 28 29 30 31
000
FTUS43 KICT 032338
TAFICT
TAF
KICT 032338Z 0400/0424 01013KT P6SM SCT035 OVC100
     FM040300 02015G22KT P6SM OVC035
     FM040800 02017G25KT 3SM -SN OVC022
      TEMPO 0410/0414 1SM -SN OVC012
     FM041900 02013KT P6SM SCT020 BKN100=

USA.gov is the U.S. government's official web portal to all federal, state and local government web resources and services.